Time;durP1;ratioP1;P1;durP2;ratioP2;P2;SDS_P1;SDS_P2;PMS_P1;PMS_P2;Temp;Humidity;BMP_temperature;BMP_pressure;BME280_temperature;BME280_humidity;BME280_pressure;Samples;Min_cycle;Max_cycle;Signal;HPM_P1;HPM_P2
2022/08/18 00:01:24;;;;;;;;;;;;;;;24.15;62.08;100288.94;7404807;19;1513;-66
2022/08/18 00:03:53;;;;;;;;;;;;;;;24.09;61.83;100282.41;7405796;19;1620;-67
2022/08/18 00:06:22;;;;;;;;;;;;;;;24.14;62.22;100285.41;7406249;19;1398;-67
2022/08/18 00:08:50;;;;;;;;;;;;;;;24.14;62.56;100290.81;7405453;19;1834;-67
2022/08/18 00:11:19;;;;;;;;;;;;;;;24.15;62.31;100297.91;7406250;19;1600;-67
2022/08/18 00:13:47;;;;;;;;;;;;;;;24.15;62.36;100280.84;7402306;19;1770;-67
2022/08/18 00:16:18;;;;;;;;;;;;;;;24.14;62.25;100285.41;7406474;19;1435;-67
2022/08/18 00:18:46;;;;;;;;;;;;;;;24.17;61.99;100298.56;7406246;19;1655;-67
2022/08/18 00:21:15;;;;;;;;;;;;;;;24.10;61.70;100281.38;7405145;19;1285;-67
2022/08/18 00:23:43;;;;;;;;;;;;;;;24.16;61.98;100299.56;7405255;19;1529;-67
2022/08/18 00:26:12;;;;;;;;;;;;;;;24.19;61.79;100291.13;7405161;19;1493;-66
2022/08/18 00:28:40;;;;;;;;;;;;;;;24.19;61.87;100291.13;7404197;19;1856;-67
2022/08/18 00:31:09;;;;;;;;;;;;;;;24.18;61.84;100292.13;7405440;19;1521;-67
2022/08/18 00:33:40;;;;;;;;;;;;;;;24.13;61.61;100304.50;7406204;19;984;-67
2022/08/18 00:36:08;;;;;;;;;;;;;;;24.15;61.73;100300.63;7405113;19;1330;-67
2022/08/18 00:38:36;;;;;;;;;;;;;;;24.20;61.38;100295.47;7404222;19;1746;-66
2022/08/18 00:41:05;;;;;;;;;;;;;;;24.20;61.38;100306.28;7404030;19;1539;-67
2022/08/18 00:43:39;;;;;;;;;;;;;;;24.06;61.62;100293.56;7404968;19;1516;-67
2022/08/18 00:46:08;;;;;;;;;;;;;;;24.08;61.77;100291.53;7405291;19;1607;-67
2022/08/18 00:48:37;;;;;;;;;;;;;;;24.13;62.08;100305.34;7404315;19;1857;-67
2022/08/18 00:51:10;;;;;;;;;;;;;;;24.17;61.93;100303.09;7404287;19;1557;-67
2022/08/18 00:53:40;;;;;;;;;;;;;;;24.21;61.60;100302.59;7404394;19;1679;-67
2022/08/18 00:56:11;;;;;;;;;;;;;;;24.21;61.73;100302.59;7403600;19;1713;-67
2022/08/18 00:58:42;;;;;;;;;;;;;;;24.18;61.71;100297.53;7402718;19;1292;-67
2022/08/18 01:01:12;;;;;;;;;;;;;;;24.18;61.76;100300.22;7403141;19;1622;-67
2022/08/18 01:03:41;;;;;;;;;;;;;;;24.13;61.75;100305.34;7405354;19;1222;-67
2022/08/18 01:06:17;;;;;;;;;;;;;;;24.13;61.73;100313.47;7405517;19;1551;-67
2022/08/18 01:08:45;;;;;;;;;;;;;;;24.08;62.19;100307.75;7403134;19;1858;-67
2022/08/18 01:11:14;;;;;;;;;;;;;;;24.11;62.17;100295.72;7402833;19;1847;-67
2022/08/18 01:13:43;;;;;;;;;;;;;;;24.12;61.95;100309.06;7404063;19;1620;-67
2022/08/18 01:21:53;;;;;;;;;;;;;;;24.07;62.07;100322.25;7404661;19;1548;-67
2022/08/18 01:25:58;;;;;;;;;;;;;;;23.92;62.37;100310.56;7404844;19;1531;-67
2022/08/18 01:27:17;;;;;;;;;;;;;;;23.94;62.00;100322.88;7403917;19;1609;-66
2022/08/18 01:29:45;;;;;;;;;;;;;;;23.92;62.05;100319.50;7403693;19;1733;-66
2022/08/18 01:32:18;;;;;;;;;;;;;;;23.89;62.22;100325.25;7402555;19;1874;-66
2022/08/18 01:34:47;;;;;;;;;;;;;;;23.82;62.14;100303.53;7408014;19;1335;-65
2022/08/18 01:37:17;;;;;;;;;;;;;;;23.86;62.03;100313.97;7410691;19;1726;-67
2022/08/18 01:39:48;;;;;;;;;;;;;;;23.71;62.67;100330.88;7411118;19;1682;-67
2022/08/18 01:42:18;;;;;;;;;;;;;;;23.68;62.58;100308.84;7411313;19;1213;-67
2022/08/18 01:44:47;;;;;;;;;;;;;;;23.82;61.97;100303.53;7409922;19;1609;-67
2022/08/18 01:47:17;;;;;;;;;;;;;;;23.84;61.84;100316.03;7409581;19;1505;-67
2022/08/18 01:49:45;;;;;;;;;;;;;;;23.87;61.82;100307.56;7406240;19;1841;-67
2022/08/18 01:52:19;;;;;;;;;;;;;;;23.82;61.80;100303.53;7409196;19;1631;-60
2022/08/18 01:54:51;;;;;;;;;;;;;;;23.87;61.69;100313.78;7409253;19;1555;-60
2022/08/18 01:57:22;;;;;;;;;;;;;;;23.80;61.76;100310.97;7410615;19;1232;-60
2022/08/18 01:59:51;;;;;;;;;;;;;;;23.78;61.76;100312.19;7407222;19;1659;-60
2022/08/18 02:02:23;;;;;;;;;;;;;;;23.78;61.71;100321.09;7398799;19;1378;-61
2022/08/18 02:04:52;;;;;;;;;;;;;;;23.79;61.88;100320.06;7408498;19;1382;-60
2022/08/18 02:07:20;;;;;;;;;;;;;;;23.86;61.69;100324.78;7408449;19;1746;-60
2022/08/18 02:09:51;;;;;;;;;;;;;;;23.80;61.94;100331.72;7406174;19;1849;-61
2022/08/18 02:12:20;;;;;;;;;;;;;;;23.80;61.75;100316.38;7410011;19;1549;-61
2022/08/18 02:14:49;;;;;;;;;;;;;;;23.81;61.74;100323.47;7406622;19;1504;-61
2022/08/18 02:17:17;;;;;;;;;;;;;;;23.90;61.84;100336.91;7407690;19;1384;-60
2022/08/18 02:19:47;;;;;;;;;;;;;;;23.84;61.58;100314.16;7407036;19;1518;-61
2022/08/18 02:22:16;;;;;;;;;;;;;;;23.88;61.72;100328.16;7408232;19;1616;-60
2022/08/18 02:24:45;;;;;;;;;;;;;;;23.86;61.78;100331.03;7408240;19;1319;-60
2022/08/18 02:27:16;;;;;;;;;;;;;;;23.90;61.84;100331.50;7408951;19;1630;-61
2022/08/18 02:29:45;;;;;;;;;;;;;;;23.88;61.68;100328.16;7406351;19;1851;-61
2022/08/18 02:32:13;;;;;;;;;;;;;;;23.87;61.76;100332.69;7407436;19;1315;-61
2022/08/18 02:34:42;;;;;;;;;;;;;;;23.90;61.68;100350.41;7408168;19;1285;-61
2022/08/18 02:37:11;;;;;;;;;;;;;;;23.91;61.27;100333.19;7407982;19;1627;-61
2022/08/18 02:39:40;;;;;;;;;;;;;;;23.89;61.48;100349.56;7407415;19;1611;-61
2022/08/18 02:42:09;;;;;;;;;;;;;;;23.91;61.42;100349.38;7408063;19;1614;-61
2022/08/18 02:44:40;;;;;;;;;;;;;;;23.76;61.61;100362.78;7407256;19;1462;-61
2022/08/18 02:47:08;;;;;;;;;;;;;;;23.75;61.79;100351.13;7404491;19;1588;-61
2022/08/18 02:49:38;;;;;;;;;;;;;;;23.71;61.95;100355.19;7406416;19;1866;-61
2022/08/18 02:52:06;;;;;;;;;;;;;;;23.72;61.76;100356.06;7407698;19;1643;-61
2022/08/18 02:54:35;;;;;;;;;;;;;;;23.80;61.83;100358.72;7406622;19;1489;-61
2022/08/18 02:57:07;;;;;;;;;;;;;;;23.78;62.02;100358.06;7406336;19;1629;-60
2022/08/18 02:59:37;;;;;;;;;;;;;;;23.75;61.84;100377.28;7407337;19;1396;-61
2022/08/18 03:02:09;;;;;;;;;;;;;;;23.73;62.01;100365.81;7404709;19;1607;-61
2022/08/18 03:04:37;;;;;;;;;;;;;;;23.68;62.19;100365.53;7405313;19;1536;-61
2022/08/18 03:07:08;;;;;;;;;;;;;;;23.72;61.74;100366.84;7406463;19;1533;-60
2022/08/18 03:09:36;;;;;;;;;;;;;;;23.72;61.93;100383.06;7403765;19;1845;-61
2022/08/18 03:12:06;;;;;;;;;;;;;;;23.78;61.63;100374.28;7405850;19;1209;-61
2022/08/18 03:14:35;;;;;;;;;;;;;;;23.62;61.83;100378.69;7403435;19;1738;-61
2022/08/18 03:17:08;;;;;;;;;;;;;;;23.27;62.62;100381.84;7402959;19;1591;-61
2022/08/18 03:19:37;;;;;;;;;;;;;;;23.51;62.05;100380.94;7404276;19;1560;-61
2022/08/18 03:22:07;;;;;;;;;;;;;;;23.62;61.17;100394.88;7405988;19;1547;-61
2022/08/18 03:24:35;;;;;;;;;;;;;;;23.66;61.18;100387.28;7406660;19;1545;-61
2022/08/18 03:27:06;;;;;;;;;;;;;;;23.65;61.47;100390.16;7407166;19;1335;-61
2022/08/18 03:29:35;;;;;;;;;;;;;;;23.63;61.34;100384.91;7403431;19;1857;-61
2022/08/18 03:32:03;;;;;;;;;;;;;;;23.72;61.11;100394.69;7405210;19;1635;-61
2022/08/18 03:34:35;;;;;;;;;;;;;;;23.62;61.20;100394.88;7405474;19;1587;-60
2022/08/18 03:37:04;;;;;;;;;;;;;;;23.62;60.99;100392.19;7405281;19;1536;-61
2022/08/18 03:39:32;;;;;;;;;;;;;;;23.62;61.13;100394.06;7405102;19;1528;-60
2022/08/18 03:42:01;;;;;;;;;;;;;;;23.63;61.12;100401.13;7406241;19;1560;-61
2022/08/18 03:44:31;;;;;;;;;;;;;;;23.68;61.14;100398.75;7406754;19;1566;-61
2022/08/18 03:46:59;;;;;;;;;;;;;;;23.67;61.16;100375.47;7406311;19;1238;-61
2022/08/18 03:49:28;;;;;;;;;;;;;;;23.72;61.09;100401.94;7404247;19;1852;-61
2022/08/18 03:52:00;;;;;;;;;;;;;;;23.74;60.99;100384.53;7401835;19;1435;-61
2022/08/18 03:54:30;;;;;;;;;;;;;;;23.79;61.14;100394.84;7402098;19;1607;-61
2022/08/18 03:56:59;;;;;;;;;;;;;;;23.86;61.41;100406.63;7401450;19;945;-61
2022/08/18 03:59:30;;;;;;;;;;;;;;;23.79;61.33;100402.94;7401597;19;1663;-61
2022/08/18 04:01:59;;;;;;;;;;;;;;;23.85;61.32;100412.19;7402264;19;1514;-61
2022/08/18 04:04:29;;;;;;;;;;;;;;;23.80;61.11;100397.38;7404944;19;1573;-61
2022/08/18 04:07:03;;;;;;;;;;;;;;;23.85;61.36;100404.94;7405195;19;1583;-61
2022/08/18 04:09:32;;;;;;;;;;;;;;;23.81;61.10;100407.16;7403360;19;1857;-61
2022/08/18 04:12:06;;;;;;;;;;;;;;;23.85;61.39;100410.34;7406767;19;988;-61
2022/08/18 04:14:34;;;;;;;;;;;;;;;23.82;61.20;100410.69;7401700;19;1502;-61
2022/08/18 04:17:03;;;;;;;;;;;;;;;23.58;61.56;100427.81;7401883;19;1536;-61
2022/08/18 04:19:33;;;;;;;;;;;;;;;23.48;61.58;100414.50;7404595;19;1438;-61
2022/08/18 04:22:05;;;;;;;;;;;;;;;23.85;60.70;100413.03;7405289;19;1336;-61
2022/08/18 04:24:34;;;;;;;;;;;;;;;24.17;59.66;100420.16;7405161;19;1631;-61
2022/08/18 04:27:06;;;;;;;;;;;;;;;24.57;58.78;100439.84;7402387;19;1680;-61
2022/08/18 04:29:35;;;;;;;;;;;;;;;25.06;57.31;100424.19;7401281;19;1853;-61
2022/08/18 04:32:04;;;;;;;;;;;;;;;25.38;56.63;100442.81;7403182;19;1551;-61
2022/08/18 04:34:34;;;;;;;;;;;;;;;25.05;57.34;100417.09;7404947;19;1434;-61
2022/08/18 04:37:05;;;;;;;;;;;;;;;24.67;58.38;100427.91;7403386;19;1533;-61
2022/08/18 04:39:34;;;;;;;;;;;;;;;24.44;59.42;100436.84;7404725;19;1403;-61
2022/08/18 04:42:03;;;;;;;;;;;;;;;24.29;59.61;100444.03;7403876;19;1501;-61
2022/08/18 04:44:32;;;;;;;;;;;;;;;24.26;59.95;100433.59;7404188;19;1356;-61
2022/08/18 04:47:02;;;;;;;;;;;;;;;24.18;60.07;100432.63;7404286;19;1427;-61
2022/08/18 04:49:32;;;;;;;;;;;;;;;24.16;60.45;100445.47;7403424;19;1859;-61
2022/08/18 04:54:44;;;;;;;;;;;;;;;24.08;60.49;100429.31;7403837;19;1603;-61
2022/08/18 04:57:14;;;;;;;;;;;;;;;24.08;60.72;100406.84;7404620;19;1234;-61
2022/08/18 04:59:43;;;;;;;;;;;;;;;24.11;60.46;100437.03;7401995;19;1678;-61
2022/08/18 05:02:12;;;;;;;;;;;;;;;24.10;60.50;100421.84;7399395;19;1580;-61
2022/08/18 05:04:45;;;;;;;;;;;;;;;24.18;60.61;100432.63;7403964;19;1607;-61
2022/08/18 05:07:15;;;;;;;;;;;;;;;24.32;60.60;100433.72;7403594;19;1554;-61
2022/08/18 05:09:46;;;;;;;;;;;;;;;24.25;60.67;100421.09;7407794;19;1855;-61
2022/08/18 05:12:15;;;;;;;;;;;;;;;24.18;60.69;100434.47;7409789;19;1626;-61
2022/08/18 05:14:44;;;;;;;;;;;;;;;24.28;60.58;100436.97;7408945;19;1512;-61
2022/08/18 05:17:12;;;;;;;;;;;;;;;24.22;60.55;100433.94;7407986;19;1475;-60
2022/08/18 05:19:42;;;;;;;;;;;;;;;24.19;60.88;100426.22;7407901;19;1261;-61
2022/08/18 05:22:13;;;;;;;;;;;;;;;24.28;60.39;100420.75;7409959;19;1529;-61
2022/08/18 05:24:42;;;;;;;;;;;;;;;24.35;60.62;100416.28;7409129;19;1283;-60
2022/08/18 05:27:13;;;;;;;;;;;;;;;24.55;59.98;100422.09;7410104;19;1521;-72
2022/08/18 05:29:42;;;;;;;;;;;;;;;24.61;60.03;100430.34;7409415;19;1866;-66
2022/08/18 05:32:10;;;;;;;;;;;;;;;24.65;59.94;100436.22;7409307;19;1325;-70
2022/08/18 05:34:40;;;;;;;;;;;;;;;24.71;59.86;100421.97;7410218;19;1499;-69
2022/08/18 05:37:16;;;;;;;;;;;;;;;24.75;59.55;100433.25;7409878;19;1307;-71
2022/08/18 05:39:54;;;;;;;;;;;;;;;24.73;60.28;100419.06;7411811;19;1431;-73
2022/08/18 05:42:27;;;;;;;;;;;;;;;24.74;59.87;100421.59;7411430;19;1221;-71
2022/08/18 05:44:56;;;;;;;;;;;;;;;24.81;59.64;100427.97;7410210;19;1434;-67
2022/08/18 05:47:26;;;;;;;;;;;;;;;24.89;59.62;100416.25;7409104;19;1360;-62
2022/08/18 05:49:56;;;;;;;;;;;;;;;24.95;59.66;100431.75;7407900;19;1849;-72
2022/08/18 05:52:27;;;;;;;;;;;;;;;24.97;59.78;100432.41;7409081;19;1389;-70
2022/08/18 05:57:45;;;;;;;;;;;;;;;25.10;59.79;100430.94;7412293;19;745;-68
2022/08/18 06:00:15;;;;;;;;;;;;;;;25.09;59.79;100443.63;7407858;19;1679;-68
2022/08/18 06:02:47;;;;;;;;;;;;;;;25.05;59.78;100444.16;7402234;19;1591;-68
2022/08/18 06:05:16;;;;;;;;;;;;;;;25.04;60.04;100439.78;7408247;19;1544;-68
2022/08/18 06:07:47;;;;;;;;;;;;;;;25.01;60.19;100433.72;7409870;19;1308;-69
2022/08/18 06:10:16;;;;;;;;;;;;;;;25.01;59.98;100425.59;7404112;19;1873;-68
2022/08/18 06:12:49;;;;;;;;;;;;;;;25.04;60.03;100437.06;7410880;19;1639;-68
2022/08/18 06:15:20;;;;;;;;;;;;;;;25.06;60.11;100445.84;7407045;19;1692;-69
2022/08/18 06:17:51;;;;;;;;;;;;;;;25.06;60.12;100445.84;7408701;19;1539;-69
2022/08/18 06:20:24;;;;;;;;;;;;;;;25.04;60.17;100431.66;7405040;19;1415;-68
2022/08/18 06:22:56;;;;;;;;;;;;;;;25.09;60.29;100445.47;7407354;19;1411;-68
2022/08/18 06:25:29;;;;;;;;;;;;;;;25.10;60.12;100447.16;7408505;19;1397;-68
2022/08/18 06:28:02;;;;;;;;;;;;;;;23.95;61.69;100448.75;7410039;19;1478;-69
2022/08/18 06:30:41;;;;;;;;;;;;;;;23.14;62.61;100455.22;7407216;19;1853;-68
2022/08/18 06:33:14;;;;;;;;;;;;;;;22.92;62.94;100457.56;7408904;19;1636;-68
2022/08/18 06:35:47;;;;;;;;;;;;;;;23.18;62.21;100464.66;7409197;19;1286;-69
2022/08/18 06:41:11;;;;;;;;;;;;;;;23.31;61.60;100461.44;7407097;19;1564;-69
2022/08/18 06:43:45;;;;;;;;;;;;;;;23.24;61.45;100445.09;7408979;19;1332;-69
2022/08/18 06:46:16;;;;;;;;;;;;;;;23.30;61.67;100474.09;7406985;19;1251;-71
2022/08/18 06:48:47;;;;;;;;;;;;;;;23.42;60.95;100464.63;7409740;19;1316;-69
2022/08/18 06:51:19;;;;;;;;;;;;;;;23.42;60.90;100448.44;7406716;19;1843;-71
2022/08/18 06:53:52;;;;;;;;;;;;;;;23.38;61.32;100465.16;7409539;19;1735;-71
2022/08/18 06:56:23;;;;;;;;;;;;;;;23.43;60.95;100468.16;7405811;19;1680;-68
2022/08/18 06:58:54;;;;;;;;;;;;;;;23.33;61.27;100465.63;7408568;19;1356;-69
2022/08/18 07:01:24;;;;;;;;;;;;;;;23.41;61.02;100462.91;7404247;19;1422;-68
2022/08/18 07:03:55;;;;;;;;;;;;;;;23.38;60.79;100465.97;7407665;19;1329;-67
2022/08/18 07:06:30;;;;;;;;;;;;;;;23.38;60.78;100441.69;7406963;19;1290;-65
2022/08/18 07:09:19;;;;;;;;;;;;;;;23.35;60.93;100447.41;7407646;19;1272;-62
2022/08/18 07:11:59;;;;;;;;;;;;;;;23.38;60.68;100451.66;7408011;19;1288;-59
2022/08/18 07:14:31;;;;;;;;;;;;;;;23.39;60.68;100459.56;7401891;19;1533;-59
2022/08/18 07:17:08;;;;;;;;;;;;;;;23.37;60.59;100466.16;7406785;19;1284;-62
2022/08/18 07:19:36;;;;;;;;;;;;;;;23.37;60.50;100455.34;7406154;19;1415;-67
2022/08/18 07:22:06;;;;;;;;;;;;;;;23.37;60.64;100450.78;7407141;19;1603;-66
2022/08/18 07:24:36;;;;;;;;;;;;;;;23.38;60.34;100462.44;7406451;19;1353;-66
2022/08/18 07:27:06;;;;;;;;;;;;;;;23.39;60.16;100447.94;7405091;19;1762;-66
2022/08/18 07:29:39;;;;;;;;;;;;;;;23.36;60.31;100438.31;7405382;19;1853;-63
2022/08/18 07:32:12;;;;;;;;;;;;;;;23.38;60.31;100455.19;7402575;19;1357;-70
2022/08/18 07:34:43;;;;;;;;;;;;;;;23.37;60.25;100466.16;7406125;19;1408;-67
2022/08/18 07:37:16;;;;;;;;;;;;;;;23.38;60.24;100452.50;7407214;19;1344;-63
2022/08/18 07:39:49;;;;;;;;;;;;;;;23.37;60.01;100450.78;7404824;19;1356;-62
2022/08/18 07:42:20;;;;;;;;;;;;;;;23.40;60.17;100469.34;7405646;19;1260;-60
2022/08/18 07:44:55;;;;;;;;;;;;;;;23.40;60.10;100455.84;7405892;19;1591;-61
2022/08/18 07:47:25;;;;;;;;;;;;;;;23.39;60.44;100451.47;7399417;19;1274;-61
2022/08/18 07:49:57;;;;;;;;;;;;;;;23.57;60.22;100477.41;7404311;19;1842;-61
2022/08/18 07:52:27;;;;;;;;;;;;;;;23.48;60.76;100456.88;7403840;19;1510;-61
2022/08/18 07:55:00;;;;;;;;;;;;;;;23.47;60.58;100452.47;7403728;19;1390;-60
2022/08/18 07:57:37;;;;;;;;;;;;;;;23.46;60.85;100445.38;7406843;19;1039;-63
2022/08/18 08:00:12;;;;;;;;;;;;;;;23.41;61.00;100438.63;7404636;19;1709;-63
2022/08/18 08:02:46;;;;;;;;;;;;;;;23.46;61.07;100445.38;7402837;19;1604;-63
2022/08/18 08:05:19;;;;;;;;;;;;;;;23.47;60.70;100452.47;7404531;19;1663;-63
2022/08/18 08:07:50;;;;;;;;;;;;;;;23.46;60.84;100445.38;7403428;19;1691;-63
2022/08/18 08:10:31;;;;;;;;;;;;;;;23.48;60.46;100454.16;7403241;19;1850;-62
2022/08/18 08:13:02;;;;;;;;;;;;;;;23.41;60.98;100446.72;7405636;19;1388;-63
2022/08/18 08:15:41;;;;;;;;;;;;;;;23.36;60.98;100443.72;7403864;19;1576;-63
2022/08/18 08:18:13;;;;;;;;;;;;;;;23.38;60.62;100447.09;7403323;19;1302;-62
2022/08/18 08:20:45;;;;;;;;;;;;;;;23.43;60.35;100438.47;7404973;19;1322;-63
2022/08/18 08:23:22;;;;;;;;;;;;;;;23.43;60.44;100444.69;7404317;19;1447;-63
2022/08/18 08:25:54;;;;;;;;;;;;;;;23.42;60.60;100434.94;7404442;19;1560;-63
2022/08/18 08:28:30;;;;;;;;;;;;;;;23.36;60.53;100449.13;7403489;19;1292;-63
2022/08/18 08:31:08;;;;;;;;;;;;;;;23.39;60.84;100442.53;7403743;19;1849;-63
2022/08/18 08:33:41;;;;;;;;;;;;;;;23.38;60.89;100441.69;7404230;19;1419;-63
2022/08/18 08:36:13;;;;;;;;;;;;;;;23.35;60.47;100436.63;7404435;19;1648;-63
2022/08/18 08:38:45;;;;;;;;;;;;;;;23.34;60.57;100440.34;7403071;19;1503;-63
2022/08/18 08:41:18;;;;;;;;;;;;;;;23.32;60.60;100423.50;7403167;19;1329;-63
2022/08/18 08:43:50;;;;;;;;;;;;;;;23.36;60.58;100445.59;7407373;19;1367;-63
2022/08/18 08:46:23;;;;;;;;;;;;;;;23.30;60.58;100427.34;7412538;19;1415;-63
2022/08/18 08:48:55;;;;;;;;;;;;;;;23.28;60.71;100429.38;7410583;19;1350;-62
2022/08/18 08:51:31;;;;;;;;;;;;;;;23.33;60.78;100433.25;7411315;19;1855;-63
2022/08/18 08:54:04;;;;;;;;;;;;;;;23.27;61.65;100438.50;7412625;19;1269;-61
2022/08/18 08:56:35;;;;;;;;;;;;;;;23.05;62.11;100440.06;7412021;19;1415;-56
2022/08/18 08:59:07;;;;;;;;;;;;;;;23.16;61.51;100437.03;7411749;19;1654;-62
2022/08/18 09:01:42;;;;;;;;;;;;;;;23.32;61.37;100428.06;7408598;19;1607;-56
2022/08/18 09:04:19;;;;;;;;;;;;;;;23.25;61.09;100419.78;7410825;19;1342;-56
2022/08/18 09:06:53;;;;;;;;;;;;;;;23.24;61.80;100439.72;7410619;19;1590;-57
2022/08/18 09:09:32;;;;;;;;;;;;;;;23.60;61.24;100439.28;7411266;19;1611;-64
2022/08/18 09:12:13;;;;;;;;;;;;;;;24.19;60.31;100442.41;7409090;19;1838;-64
2022/08/18 09:14:59;;;;;;;;;;;;;;;24.50;59.14;100436.16;7407266;19;1690;-60
2022/08/18 09:17:49;;;;;;;;;;;;;;;24.67;59.48;100425.22;7408592;19;1712;-62
2022/08/18 09:20:29;;;;;;;;;;;;;;;24.76;59.78;100424.13;7409616;19;1851;-58
2022/08/18 09:23:02;;;;;;;;;;;;;;;24.85;59.65;100441.97;7410558;19;1561;-56
2022/08/18 09:25:46;;;;;;;;;;;;;;;24.87;59.52;100418.28;7409843;19;1438;-58
2022/08/18 09:28:16;;;;;;;;;;;;;;;24.94;60.04;100426.50;7411175;19;1615;-58
2022/08/18 09:30:46;;;;;;;;;;;;;;;25.04;61.19;100424.38;7408171;19;1857;-57
2022/08/18 09:33:23;;;;;;;;;;;;;;;25.09;60.58;100424.69;7411076;19;1341;-57
2022/08/18 09:36:22;;;;;;;;;;;;;;;25.07;60.92;100423.16;7406821;19;1469;-57
2022/08/18 09:41:44;;;;;;;;;;;;;;;23.86;64.21;100422.00;7406009;19;1262;-57
2022/08/18 09:44:14;;;;;;;;;;;;;;;23.09;63.60;100425.22;7408231;19;1322;-57
2022/08/18 09:47:00;;;;;;;;;;;;;;;22.85;63.48;100410.72;7409732;19;1488;-57
2022/08/18 09:49:45;;;;;;;;;;;;;;;22.78;63.25;100415.09;7408887;19;1175;-56
2022/08/18 09:52:30;;;;;;;;;;;;;;;22.88;62.73;100404.13;7406437;19;1850;-57
2022/08/18 09:55:04;;;;;;;;;;;;;;;22.93;62.98;100415.28;7404326;19;1343;-57
2022/08/18 09:57:33;;;;;;;;;;;;;;;22.80;62.99;100400.44;7410708;19;1556;-57
2022/08/18 10:00:19;;;;;;;;;;;;;;;22.74;63.66;100394.88;7409650;19;1497;-57
2022/08/18 10:03:02;;;;;;;;;;;;;;;22.78;63.69;100396.22;7409855;19;1608;-56
2022/08/18 10:05:31;;;;;;;;;;;;;;;22.76;64.10;100387.47;7409092;19;1877;-57
2022/08/18 10:08:15;;;;;;;;;;;;;;;22.80;64.23;100394.19;7408917;19;1540;-57
2022/08/18 10:10:50;;;;;;;;;;;;;;;22.78;64.61;100385.44;7406772;19;1864;-57
2022/08/18 10:13:23;;;;;;;;;;;;;;;22.77;64.71;100383.78;7408874;19;1503;-57
2022/08/18 10:16:00;;;;;;;;;;;;;;;22.73;64.75;100382.44;7405924;19;1475;-57
2022/08/18 10:18:46;;;;;;;;;;;;;;;22.83;64.78;100378.53;7408027;19;1523;-57
2022/08/18 10:21:20;;;;;;;;;;;;;;;22.76;65.03;100379.38;7408822;19;1776;-57
2022/08/18 10:23:57;;;;;;;;;;;;;;;22.66;65.29;100376.03;7408116;19;1348;-57
2022/08/18 10:26:40;;;;;;;;;;;;;;;22.70;65.18;100377.34;7407303;19;1516;-57
2022/08/18 10:29:12;;;;;;;;;;;;;;;22.68;65.16;100356.00;7407946;19;1390;-57
2022/08/18 10:31:55;;;;;;;;;;;;;;;22.76;64.82;100382.94;7406459;19;1850;-57
2022/08/18 10:34:39;;;;;;;;;;;;;;;22.75;65.18;100381.25;7407564;19;1552;-57
2022/08/18 10:37:13;;;;;;;;;;;;;;;22.63;65.33;100364.56;7408112;19;1532;-57
2022/08/18 10:39:46;;;;;;;;;;;;;;;22.69;65.40;100365.75;7406183;19;1518;-57
2022/08/18 10:42:19;;;;;;;;;;;;;;;22.72;65.30;100354.63;7409098;19;1055;-57
2022/08/18 10:44:52;;;;;;;;;;;;;;;22.72;64.93;100353.78;7406685;19;1763;-57
2022/08/18 10:47:25;;;;;;;;;;;;;;;22.74;65.11;100362.53;7407279;19;1564;-58
2022/08/18 10:49:53;;;;;;;;;;;;;;;22.80;65.07;100334.88;7408634;19;1521;-57
2022/08/18 10:52:28;;;;;;;;;;;;;;;22.78;65.20;100345.00;7404767;19;1861;-57
2022/08/18 10:55:06;;;;;;;;;;;;;;;22.77;65.45;100343.34;7405583;19;1558;-57
2022/08/18 10:57:38;;;;;;;;;;;;;;;22.89;65.58;100343.81;7408575;19;1535;-57
2022/08/18 11:00:12;;;;;;;;;;;;;;;22.97;65.32;100335.72;7404927;19;1555;-57
2022/08/18 11:02:51;;;;;;;;;;;;;;;22.82;65.62;100335.59;7403883;19;1397;-57
2022/08/18 11:05:23;;;;;;;;;;;;;;;22.82;66.10;100330.19;7406440;19;1770;-57
2022/08/18 11:07:51;;;;;;;;;;;;;;;22.82;66.07;100322.94;7404814;19;1426;-57
2022/08/18 11:10:23;;;;;;;;;;;;;;;22.89;65.71;100335.72;7403763;19;1264;-57
2022/08/18 11:12:59;;;;;;;;;;;;;;;22.89;66.15;100339.25;7405629;19;1854;-57
2022/08/18 11:15:36;;;;;;;;;;;;;;;22.81;66.13;100339.28;7405306;19;1429;-57
2022/08/18 11:18:12;;;;;;;;;;;;;;;22.76;66.39;100323.63;7405582;19;1642;-57
2022/08/18 11:20:42;;;;;;;;;;;;;;;22.76;66.41;100333.56;7407138;19;1599;-56
2022/08/18 11:23:14;;;;;;;;;;;;;;;22.84;65.95;100331.69;7406600;19;1388;-57
2022/08/18 11:25:43;;;;;;;;;;;;;;;22.77;66.45;100324.47;7407048;19;1540;-57
2022/08/18 11:28:22;;;;;;;;;;;;;;;22.73;66.68;100321.25;7406867;19;1603;-57
2022/08/18 11:30:56;;;;;;;;;;;;;;;22.78;66.42;100309.97;7405563;19;1822;-57
2022/08/18 11:33:24;;;;;;;;;;;;;;;22.78;66.40;100320.75;7405940;19;1765;-57
2022/08/18 11:35:56;;;;;;;;;;;;;;;22.70;66.38;100318.06;7407129;19;1521;-57
2022/08/18 11:38:26;;;;;;;;;;;;;;;22.70;66.26;100307.28;7405103;19;1637;-57
2022/08/18 11:41:11;;;;;;;;;;;;;;;22.75;66.33;100315.72;7405517;19;1603;-57
2022/08/18 11:43:40;;;;;;;;;;;;;;;22.74;66.04;100298.69;7404799;19;1777;-57
2022/08/18 11:46:17;;;;;;;;;;;;;;;22.69;66.35;100295.66;7406774;19;1349;-57
2022/08/18 11:48:46;;;;;;;;;;;;;;;22.64;66.44;100285.41;7406028;19;1528;-57
2022/08/18 11:51:19;;;;;;;;;;;;;;;22.59;66.26;100292.31;7406097;19;1846;-57
2022/08/18 11:53:53;;;;;;;;;;;;;;;22.61;66.47;100283.03;7406088;19;1710;-57
2022/08/18 11:56:26;;;;;;;;;;;;;;;22.68;66.22;100276.97;7405924;19;1750;-57
2022/08/18 11:58:55;;;;;;;;;;;;;;;22.64;66.23;100280.03;7404653;19;1626;-57
2022/08/18 12:01:34;;;;;;;;;;;;;;;22.60;66.51;100256.25;7403774;19;1579;-57
2022/08/18 12:04:10;;;;;;;;;;;;;;;22.65;66.18;100261.97;7404038;19;1594;-57
2022/08/18 12:06:39;;;;;;;;;;;;;;;22.71;66.25;100244.28;7405774;19;1579;-58
2022/08/18 12:09:09;;;;;;;;;;;;;;;23.17;64.97;100236.41;7404246;19;1400;-56
2022/08/18 12:11:38;;;;;;;;;;;;;;;23.78;63.01;100259.00;7403956;19;1857;-57
2022/08/18 12:14:08;;;;;;;;;;;;;;;24.20;62.25;100244.16;7401595;19;1553;-57
2022/08/18 12:16:42;;;;;;;;;;;;;;;24.40;61.94;100249.03;7401598;19;1270;-56
2022/08/18 12:19:11;;;;;;;;;;;;;;;24.63;61.08;100261.69;7399180;19;1271;-57
2022/08/18 12:21:40;;;;;;;;;;;;;;;24.65;61.17;100248.81;7401301;19;1364;-57
2022/08/18 12:24:13;;;;;;;;;;;;;;;24.78;60.91;100243.59;7403118;19;1520;-57
2022/08/18 12:26:41;;;;;;;;;;;;;;;24.90;61.06;100239.41;7400645;19;1431;-57
2022/08/18 12:29:09;;;;;;;;;;;;;;;24.94;60.79;100227.19;7401726;19;1356;-59
2022/08/18 12:31:40;;;;;;;;;;;;;;;25.02;61.31;100239.78;7400811;19;1861;-58
2022/08/18 12:34:09;;;;;;;;;;;;;;;25.01;60.91;100236.22;7401402;19;1302;-57
2022/08/18 12:36:37;;;;;;;;;;;;;;;25.06;60.99;100234.81;7403686;19;1233;-57
2022/08/18 12:39:06;;;;;;;;;;;;;;;25.09;60.89;100234.44;7402699;19;1576;-57
2022/08/18 12:41:34;;;;;;;;;;;;;;;25.01;61.26;100202.94;7403625;19;1329;-58
2022/08/18 12:44:03;;;;;;;;;;;;;;;25.05;61.72;100211.50;7403042;19;1553;-58
2022/08/18 12:46:32;;;;;;;;;;;;;;;24.98;61.34;100209.53;7404099;19;1373;-58
2022/08/18 12:49:03;;;;;;;;;;;;;;;25.00;61.49;100215.59;7402710;19;1417;-57
2022/08/18 12:51:32;;;;;;;;;;;;;;;25.03;61.44;100217.13;7403167;19;1845;-57
2022/08/18 12:54:00;;;;;;;;;;;;;;;25.02;61.45;100186.50;7402831;19;1317;-58
2022/08/18 12:56:31;;;;;;;;;;;;;;;25.07;61.42;100194.06;7402798;19;1723;-57
2022/08/18 12:58:59;;;;;;;;;;;;;;;25.08;61.54;100190.31;7401148;19;1592;-58
2022/08/18 13:01:28;;;;;;;;;;;;;;;25.10;61.83;100206.38;7400558;19;1628;-58
2022/08/18 13:03:58;;;;;;;;;;;;;;;25.09;61.78;100196.56;7400365;19;1883;-58
2022/08/18 13:06:29;;;;;;;;;;;;;;;25.10;62.00;100193.66;7403240;19;1362;-58
2022/08/18 13:08:57;;;;;;;;;;;;;;;25.15;61.54;100190.41;7403164;19;1359;-57
2022/08/18 13:11:26;;;;;;;;;;;;;;;25.25;61.01;100190.97;7400081;19;1877;-57
2022/08/18 13:13:55;;;;;;;;;;;;;;;25.24;61.16;100188.44;7403098;19;1444;-58
2022/08/18 13:16:23;;;;;;;;;;;;;;;25.28;61.11;100198.69;7402251;19;1392;-57
2022/08/18 13:18:53;;;;;;;;;;;;;;;25.21;61.37;100184.25;7401956;19;1329;-57
2022/08/18 13:21:21;;;;;;;;;;;;;;;25.25;61.38;100176.59;7401352;19;1577;-57
2022/08/18 13:23:52;;;;;;;;;;;;;;;25.19;61.38;100181.72;7402331;19;1519;-57
2022/08/18 13:26:23;;;;;;;;;;;;;;;25.19;61.20;100175.47;7402151;19;1314;-57
2022/08/18 13:28:52;;;;;;;;;;;;;;;25.17;61.81;100182.94;7402683;19;1399;-58